createdAt,value
2018-12-26T00:00:14.709Z,993.9
2018-12-26T00:01:16.495Z,993.9
2018-12-26T00:02:18.240Z,993.9
2018-12-26T00:03:20.490Z,993.9
2018-12-26T00:04:21.767Z,993.9
2018-12-26T00:05:23.405Z,994
2018-12-26T00:06:27.059Z,994
2018-12-26T00:07:28.347Z,994.1
2018-12-26T00:08:29.890Z,994
2018-12-26T00:09:32.760Z,994
2018-12-26T00:10:34.364Z,994
2018-12-26T00:11:36.350Z,994
2018-12-26T00:12:39.338Z,994
2018-12-26T00:13:40.638Z,994
2018-12-26T00:14:41.929Z,993.9
2018-12-26T00:15:43.206Z,993.9
2018-12-26T00:16:44.879Z,993.9
2018-12-26T00:17:46.243Z,993.9
2018-12-26T00:18:49.120Z,994.1
2018-12-26T00:19:50.461Z,994
2018-12-26T00:20:52.044Z,994
2018-12-26T00:21:53.341Z,994
2018-12-26T00:22:54.657Z,994.1
2018-12-26T00:23:56.292Z,994.1
2018-12-26T00:24:57.709Z,994.1
2018-12-26T00:26:02.744Z,994
2018-12-26T00:27:04.019Z,994
2018-12-26T00:28:05.300Z,994
2018-12-26T00:29:07.113Z,994.1
2018-12-26T00:30:08.394Z,994
2018-12-26T00:31:09.672Z,994
2018-12-26T00:32:10.961Z,994
2018-12-26T00:33:12.235Z,994
2018-12-26T00:34:13.597Z,994
2018-12-26T00:35:17.188Z,994
2018-12-26T00:36:18.457Z,993.9
2018-12-26T00:37:20.239Z,994
2018-12-26T00:38:21.548Z,994
2018-12-26T00:39:22.954Z,993.8
2018-12-26T00:40:24.233Z,993.9
2018-12-26T00:41:25.497Z,994
2018-12-26T00:42:26.805Z,993.9
2018-12-26T00:43:28.117Z,994
2018-12-26T00:44:29.432Z,993.9
2018-12-26T00:45:30.698Z,994
2018-12-26T00:46:32.254Z,994
2018-12-26T00:47:33.530Z,994
2018-12-26T00:48:34.812Z,994
2018-12-26T00:49:38.365Z,994.1
2018-12-26T00:50:39.637Z,994
2018-12-26T00:51:43.453Z,994
2018-12-26T00:52:44.784Z,994
2018-12-26T00:53:46.082Z,994.1
2018-12-26T00:54:47.397Z,994.1
2018-12-26T00:55:48.665Z,994
2018-12-26T00:56:49.985Z,994
2018-12-26T00:57:51.246Z,994.1
2018-12-26T00:58:52.536Z,994
2018-12-26T00:59:53.849Z,993.9
2018-12-26T01:00:55.144Z,993.9
2018-12-26T01:01:56.417Z,993.9
2018-12-26T01:02:57.959Z,993.9
2018-12-26T01:03:59.292Z,993.9
2018-12-26T01:05:03.404Z,993.9
2018-12-26T01:06:04.688Z,993.9
2018-12-26T01:07:05.965Z,993.9
2018-12-26T01:08:08.016Z,993.9
2018-12-26T01:09:09.341Z,993.8
2018-12-26T01:10:10.677Z,993.7
2018-12-26T01:11:14.744Z,993.8
2018-12-26T01:12:16.257Z,993.8
2018-12-26T01:13:17.509Z,993.8
2018-12-26T01:14:19.009Z,993.6
2018-12-26T01:15:20.296Z,993.8
2018-12-26T01:16:21.587Z,993.8
2018-12-26T01:17:22.885Z,993.8
2018-12-26T01:18:24.316Z,993.8
2018-12-26T01:19:25.897Z,993.7
2018-12-26T01:20:27.439Z,993.8
2018-12-26T01:21:28.946Z,993.7
2018-12-26T01:22:30.221Z,993.8
2018-12-26T01:23:31.562Z,993.7
2018-12-26T01:24:32.838Z,993.6
2018-12-26T01:25:39.359Z,993.6
2018-12-26T01:26:45.076Z,993.7
2018-12-26T01:27:46.383Z,993.7
2018-12-26T01:28:52.291Z,993.7
2018-12-26T01:29:53.566Z,993.7
2018-12-26T01:30:54.868Z,993.7
2018-12-26T01:31:56.356Z,993.8
2018-12-26T01:32:57.621Z,993.7
2018-12-26T01:33:59.804Z,993.8
2018-12-26T01:35:01.302Z,993.8
2018-12-26T01:36:02.624Z,993.8
2018-12-26T01:37:07.377Z,993.9
2018-12-26T01:38:08.637Z,993.8
2018-12-26T01:39:10.026Z,993.8
2018-12-26T01:40:11.362Z,993.9
2018-12-26T01:41:12.672Z,993.9
2018-12-26T01:42:14.327Z,993.9
2018-12-26T01:43:15.874Z,993.9
2018-12-26T01:44:17.318Z,994
2018-12-26T01:45:18.597Z,993.9
2018-12-26T01:46:19.904Z,993.9
2018-12-26T01:47:21.202Z,993.8
2018-12-26T01:48:22.655Z,993.9
2018-12-26T01:49:24.245Z,993.9
2018-12-26T01:50:25.532Z,993.9
2018-12-26T01:51:27.102Z,993.8
2018-12-26T01:52:28.363Z,993.9
2018-12-26T01:53:32.083Z,993.8
2018-12-26T01:54:33.368Z,994
2018-12-26T01:55:34.685Z,994
2018-12-26T01:56:36.005Z,994
2018-12-26T01:57:37.296Z,993.9
2018-12-26T01:58:38.565Z,994
2018-12-26T01:59:42.310Z,993.9
2018-12-26T02:00:47.664Z,993.9
2018-12-26T02:01:48.981Z,993.9
2018-12-26T02:02:50.240Z,993.9
2018-12-26T02:03:51.504Z,993.9
2018-12-26T02:04:52.792Z,993.9
2018-12-26T02:05:54.329Z,993.8
2018-12-26T02:06:58.081Z,993.9
2018-12-26T02:07:59.364Z,993.9
2018-12-26T02:09:00.624Z,993.9
2018-12-26T02:10:01.897Z,993.9
2018-12-26T02:11:03.181Z,993.9
2018-12-26T02:12:04.524Z,993.9
2018-12-26T02:13:05.781Z,993.8
2018-12-26T02:14:07.051Z,993.8
2018-12-26T02:15:08.309Z,993.9
2018-12-26T02:16:09.695Z,993.9
2018-12-26T02:17:11.040Z,993.8
2018-12-26T02:18:12.336Z,993.9
2018-12-26T02:19:13.616Z,993.9
2018-12-26T02:20:14.889Z,993.8
2018-12-26T02:21:16.165Z,993.9
2018-12-26T02:22:17.483Z,993.9
2018-12-26T02:23:18.799Z,993.8
2018-12-26T02:24:20.055Z,993.9
2018-12-26T02:25:22.236Z,993.8
2018-12-26T02:26:23.507Z,993.8
2018-12-26T02:27:25.014Z,993.8
2018-12-26T02:28:26.308Z,993.8
2018-12-26T02:29:27.687Z,993.8
2018-12-26T02:30:29.180Z,993.8
2018-12-26T02:31:30.499Z,993.8
2018-12-26T02:32:31.795Z,993.9
2018-12-26T02:33:33.064Z,993.8
2018-12-26T02:34:34.335Z,993.8
2018-12-26T02:35:36.269Z,993.8
2018-12-26T02:36:37.547Z,993.8
2018-12-26T02:37:38.878Z,993.8
2018-12-26T02:38:40.153Z,993.8
2018-12-26T02:39:41.405Z,993.6
2018-12-26T02:40:44.832Z,993.8
2018-12-26T02:41:46.097Z,993.8
2018-12-26T02:42:47.429Z,993.8
2018-12-26T02:43:48.985Z,993.8
2018-12-26T02:44:50.281Z,993.8
2018-12-26T02:45:51.563Z,993.8
2018-12-26T02:46:52.817Z,993.7
2018-12-26T02:47:54.463Z,993.8
2018-12-26T02:48:55.753Z,993.8
2018-12-26T02:49:57.023Z,993.8
2018-12-26T02:50:58.290Z,993.8
2018-12-26T02:51:59.874Z,993.8
2018-12-26T02:53:01.204Z,993.7
2018-12-26T02:54:02.469Z,993.7
2018-12-26T02:55:03.751Z,993.6
2018-12-26T02:56:08.281Z,993.7
2018-12-26T02:57:09.825Z,993.6
2018-12-26T02:58:11.150Z,993.6
2018-12-26T02:59:12.428Z,993.6
2018-12-26T03:00:15.928Z,993.6
2018-12-26T03:01:19.313Z,993.6
2018-12-26T03:02:20.603Z,993.6
2018-12-26T03:03:21.910Z,993.6
2018-12-26T03:04:26.294Z,993.6
2018-12-26T03:05:27.579Z,993.6
2018-12-26T03:06:28.857Z,993.6
2018-12-26T03:07:30.126Z,993.6
2018-12-26T03:08:31.446Z,993.5
2018-12-26T03:09:32.725Z,993.6
2018-12-26T03:10:34.035Z,993.6
2018-12-26T03:11:35.602Z,993.5
2018-12-26T03:12:36.885Z,993.5
2018-12-26T03:13:38.201Z,993.6
2018-12-26T03:14:39.537Z,993.5
2018-12-26T03:15:43.004Z,993.5
2018-12-26T03:16:44.291Z,993.6
2018-12-26T03:17:45.574Z,993.5
2018-12-26T03:18:46.892Z,993.4
2018-12-26T03:19:50.515Z,993.5
2018-12-26T03:20:51.805Z,993.5
2018-12-26T03:21:53.099Z,993.5
2018-12-26T03:22:54.378Z,993.4
2018-12-26T03:23:55.701Z,993.5
2018-12-26T03:24:56.988Z,993.4
2018-12-26T03:25:58.250Z,993.4
2018-12-26T03:26:59.525Z,993.3
2018-12-26T03:28:00.804Z,993.4
2018-12-26T03:29:02.109Z,993.5
2018-12-26T03:30:03.437Z,993.6
2018-12-26T03:31:04.738Z,993.5
2018-12-26T03:32:06.021Z,993.5
2018-12-26T03:33:07.301Z,993.5
2018-12-26T03:34:08.618Z,993.6
2018-12-26T03:35:10.168Z,993.5
2018-12-26T03:36:11.441Z,993.4
2018-12-26T03:37:12.713Z,993.3
2018-12-26T03:38:13.979Z,993.4
2018-12-26T03:39:15.290Z,993.3
2018-12-26T03:40:16.552Z,993.3
2018-12-26T03:41:17.850Z,993.2
2018-12-26T03:42:19.377Z,993.2
2018-12-26T03:43:20.662Z,993.2
2018-12-26T03:44:21.953Z,993.2
2018-12-26T03:45:23.231Z,993.2
2018-12-26T03:46:24.670Z,993.2
2018-12-26T03:47:25.934Z,993.2
2018-12-26T03:48:27.201Z,993.2
2018-12-26T03:49:28.514Z,993
2018-12-26T03:50:29.811Z,993.2
2018-12-26T03:51:31.081Z,993.1
2018-12-26T03:52:32.359Z,993.1
2018-12-26T03:53:33.630Z,993.1
2018-12-26T03:54:34.946Z,993.1
2018-12-26T03:55:36.220Z,993.1
2018-12-26T03:56:37.636Z,993.1
2018-12-26T03:57:38.996Z,993
2018-12-26T03:58:40.511Z,993
2018-12-26T03:59:41.812Z,993
2018-12-26T04:00:43.116Z,992.9
2018-12-26T04:01:44.381Z,993
2018-12-26T04:02:45.678Z,992.9
2018-12-26T04:03:47.207Z,992.9
2018-12-26T04:04:48.471Z,992.9
2018-12-26T04:05:49.824Z,992.9
2018-12-26T04:06:51.113Z,992.8
2018-12-26T04:07:52.380Z,992.8
2018-12-26T04:08:53.632Z,992.8
2018-12-26T04:09:54.936Z,992.7
2018-12-26T04:10:56.188Z,992.6
2018-12-26T04:11:57.463Z,992.5
2018-12-26T04:12:58.755Z,992.5
2018-12-26T04:14:00.012Z,992.6
2018-12-26T04:15:01.641Z,992.8
2018-12-26T04:16:02.901Z,992.8
2018-12-26T04:17:04.251Z,992.7
2018-12-26T04:18:05.541Z,992.8
2018-12-26T04:19:06.800Z,992.8
2018-12-26T04:20:08.095Z,992.8
2018-12-26T04:21:09.365Z,992.7
2018-12-26T04:22:10.636Z,992.8
2018-12-26T04:23:11.933Z,992.7
2018-12-26T04:24:13.246Z,992.8
2018-12-26T04:25:14.579Z,992.8
2018-12-26T04:26:15.993Z,992.8
2018-12-26T04:27:17.261Z,992.8
2018-12-26T04:28:18.635Z,992.8
2018-12-26T04:29:19.902Z,992.8
2018-12-26T04:30:21.218Z,992.8
2018-12-26T04:31:22.485Z,992.7
2018-12-26T04:32:23.764Z,992.7
2018-12-26T04:33:25.048Z,992.7
2018-12-26T04:34:26.628Z,992.8
2018-12-26T04:35:27.936Z,992.7
2018-12-26T04:36:29.205Z,992.8
2018-12-26T04:37:30.476Z,992.7
2018-12-26T04:38:34.672Z,992.6
2018-12-26T04:39:35.941Z,992.7
2018-12-26T04:40:37.253Z,992.6
2018-12-26T04:41:38.517Z,992.7
2018-12-26T04:42:39.784Z,992.8
2018-12-26T04:43:41.061Z,992.7
2018-12-26T04:44:42.437Z,992.8
2018-12-26T04:45:43.797Z,992.9
2018-12-26T04:46:45.069Z,992.8
2018-12-26T04:47:46.337Z,992.9
2018-12-26T04:48:47.614Z,992.9
2018-12-26T04:49:49.776Z,992.9
2018-12-26T04:50:51.140Z,992.9
2018-12-26T04:51:52.400Z,992.9
2018-12-26T04:52:54.273Z,992.9
2018-12-26T04:53:55.856Z,993
2018-12-26T04:54:57.138Z,992.9
2018-12-26T04:55:58.428Z,993
2018-12-26T04:57:00.209Z,993
2018-12-26T04:58:01.521Z,992.9
2018-12-26T04:59:02.835Z,993
2018-12-26T05:00:04.104Z,993
2018-12-26T05:01:05.416Z,992.9
2018-12-26T05:02:07.145Z,992.9
2018-12-26T05:03:10.047Z,992.9
2018-12-26T05:04:11.575Z,993
2018-12-26T05:05:12.846Z,993
2018-12-26T05:06:14.196Z,993
2018-12-26T05:07:15.451Z,992.9
2018-12-26T05:08:16.757Z,993
2018-12-26T05:09:18.030Z,992.9
2018-12-26T05:10:20.317Z,993
2018-12-26T05:11:21.648Z,993
2018-12-26T05:12:25.142Z,993
2018-12-26T05:13:38.081Z,993
2018-12-26T05:14:39.346Z,993
2018-12-26T05:15:40.632Z,993
2018-12-26T05:16:41.932Z,992.8
2018-12-26T05:17:43.190Z,992.9
2018-12-26T05:18:44.462Z,993
2018-12-26T05:19:45.723Z,993
2018-12-26T05:20:47.010Z,993
2018-12-26T05:21:48.577Z,993
2018-12-26T05:22:49.860Z,993
2018-12-26T05:23:51.126Z,993
2018-12-26T05:24:52.416Z,993
2018-12-26T05:25:53.689Z,993
2018-12-26T05:26:55.011Z,993.1
2018-12-26T05:27:56.289Z,993.1
2018-12-26T05:28:57.553Z,993.1
2018-12-26T05:29:58.831Z,993.1
2018-12-26T05:31:00.096Z,993.1
2018-12-26T05:32:01.533Z,993.1
2018-12-26T05:33:02.815Z,993.1
2018-12-26T05:34:04.088Z,993.1
2018-12-26T05:35:05.357Z,992.9
2018-12-26T05:36:06.624Z,993
2018-12-26T05:37:07.942Z,993.1
2018-12-26T05:38:09.248Z,993
2018-12-26T05:39:10.524Z,993
2018-12-26T05:40:11.829Z,993
2018-12-26T05:41:13.126Z,993.1
2018-12-26T05:42:14.460Z,992.9
2018-12-26T05:43:15.741Z,993.1
2018-12-26T05:44:17.001Z,993.1
2018-12-26T05:45:18.296Z,993.1
2018-12-26T05:46:19.573Z,993
2018-12-26T05:47:20.892Z,993.1
2018-12-26T05:48:22.153Z,993.1
2018-12-26T05:49:23.432Z,993.1
2018-12-26T05:50:24.692Z,992.9
2018-12-26T05:51:25.964Z,993.1
2018-12-26T05:52:27.432Z,993
2018-12-26T05:53:28.722Z,993.1
2018-12-26T05:54:29.992Z,993
2018-12-26T05:55:31.317Z,993.1
2018-12-26T05:56:32.624Z,993.1
2018-12-26T05:57:42.532Z,993.1
2018-12-26T05:58:43.959Z,993.1
2018-12-26T05:59:45.340Z,993.1
2018-12-26T06:00:46.598Z,993.1
2018-12-26T06:01:47.912Z,993
2018-12-26T06:02:49.206Z,993
2018-12-26T06:03:55.547Z,993
2018-12-26T06:04:56.819Z,993
2018-12-26T06:05:58.085Z,993
2018-12-26T06:06:59.362Z,993.1
2018-12-26T06:08:02.236Z,993
2018-12-26T06:09:03.504Z,993
2018-12-26T06:10:04.871Z,993
2018-12-26T06:11:06.147Z,992.9
2018-12-26T06:12:07.406Z,993
2018-12-26T06:13:08.712Z,993
2018-12-26T06:14:09.996Z,993
2018-12-26T06:15:11.344Z,993
2018-12-26T06:16:12.619Z,993
2018-12-26T06:17:14.101Z,993
2018-12-26T06:18:15.489Z,992.9
2018-12-26T06:19:16.746Z,993
2018-12-26T06:20:18.014Z,993
2018-12-26T06:21:19.289Z,993
2018-12-26T06:22:20.579Z,992.9
2018-12-26T06:23:21.875Z,992.9
2018-12-26T06:24:23.131Z,992.9
2018-12-26T06:25:24.385Z,992.9
2018-12-26T06:26:25.674Z,992.9
2018-12-26T06:27:26.945Z,992.9
2018-12-26T06:28:28.325Z,992.9
2018-12-26T06:29:29.573Z,993
2018-12-26T06:30:30.900Z,992.9
2018-12-26T06:31:32.166Z,993
2018-12-26T06:32:33.443Z,993
2018-12-26T06:33:34.758Z,993
2018-12-26T06:34:36.036Z,993
2018-12-26T06:35:37.301Z,993
2018-12-26T06:36:38.825Z,993
2018-12-26T06:37:40.600Z,993.1
2018-12-26T06:38:41.940Z,993
2018-12-26T06:39:43.255Z,993.1
2018-12-26T06:40:44.534Z,993.1
2018-12-26T06:41:45.806Z,993.1
2018-12-26T06:42:47.084Z,993
2018-12-26T06:43:49.153Z,993
2018-12-26T06:44:50.421Z,992.9
2018-12-26T06:45:51.681Z,993
2018-12-26T06:46:52.938Z,992.9
2018-12-26T06:47:54.198Z,993
2018-12-26T06:48:55.498Z,992.9
2018-12-26T06:49:56.758Z,993
2018-12-26T06:50:58.028Z,993
2018-12-26T06:51:59.284Z,993
2018-12-26T06:53:00.573Z,993.1
2018-12-26T06:54:01.884Z,993.1
2018-12-26T06:55:03.157Z,993.1
2018-12-26T06:56:04.435Z,993.1
2018-12-26T06:57:05.681Z,993.1
2018-12-26T06:58:07.050Z,993
2018-12-26T06:59:08.396Z,993
2018-12-26T07:00:09.657Z,993
2018-12-26T07:01:10.945Z,993
2018-12-26T07:02:12.208Z,992.8
2018-12-26T07:03:13.485Z,993.1
2018-12-26T07:04:14.808Z,993.1
2018-12-26T07:05:16.085Z,993.1
2018-12-26T07:06:17.334Z,993.1
2018-12-26T07:07:18.592Z,993.1
2018-12-26T07:08:19.869Z,993
2018-12-26T07:09:21.171Z,993.1
2018-12-26T07:10:22.728Z,993
2018-12-26T07:11:24.019Z,993
2018-12-26T07:12:25.288Z,993.1
2018-12-26T07:13:26.571Z,993
2018-12-26T07:14:27.871Z,993.1
2018-12-26T07:15:29.161Z,993.1
2018-12-26T07:16:30.435Z,993.1
2018-12-26T07:17:31.728Z,993.1
2018-12-26T07:18:32.985Z,993.1
2018-12-26T07:19:34.300Z,993.1
2018-12-26T07:20:35.588Z,993.1
2018-12-26T07:21:36.866Z,993.1
2018-12-26T07:22:38.184Z,993.1
2018-12-26T07:23:39.445Z,993
2018-12-26T07:24:40.758Z,993.1
2018-12-26T07:25:42.047Z,993.1
2018-12-26T07:26:43.310Z,993.1
2018-12-26T07:27:44.567Z,993.1
2018-12-26T07:28:45.949Z,993.1
2018-12-26T07:29:47.719Z,993.1
2018-12-26T07:30:48.979Z,993.1
2018-12-26T07:31:50.257Z,993.1
2018-12-26T07:32:51.533Z,993
2018-12-26T07:33:52.824Z,993
2018-12-26T07:34:54.133Z,993
2018-12-26T07:35:55.394Z,993.1
2018-12-26T07:36:56.665Z,993.1
2018-12-26T07:37:57.939Z,993.1
2018-12-26T07:38:59.212Z,993.1
2018-12-26T07:40:00.525Z,993.1
2018-12-26T07:41:01.797Z,993.1
2018-12-26T07:42:03.078Z,993.2
2018-12-26T07:43:04.361Z,993.2
2018-12-26T07:44:05.637Z,993.2
2018-12-26T07:45:06.978Z,993.2
2018-12-26T07:46:08.244Z,993.2
2018-12-26T07:47:09.516Z,993.2
2018-12-26T07:48:10.780Z,993.2
2018-12-26T07:49:12.051Z,993.2
2018-12-26T07:50:13.385Z,993.1
2018-12-26T07:51:14.657Z,993.2
2018-12-26T07:52:16.004Z,993.3
2018-12-26T07:53:17.273Z,993.3
2018-12-26T07:54:20.503Z,993.2
2018-12-26T07:55:22.001Z,993.2
2018-12-26T07:56:23.284Z,993.2
2018-12-26T07:57:24.545Z,993.3
2018-12-26T07:58:25.807Z,993.1
2018-12-26T07:59:28.255Z,993.2
2018-12-26T08:00:29.902Z,993.2
2018-12-26T08:01:31.186Z,993.3
2018-12-26T08:02:32.491Z,993.2
2018-12-26T08:03:33.809Z,993.4
2018-12-26T08:04:35.127Z,993.4
2018-12-26T08:05:36.621Z,993.4
2018-12-26T08:06:37.893Z,993.4
2018-12-26T08:07:39.165Z,993.4
2018-12-26T08:08:40.447Z,993.5
2018-12-26T08:09:41.735Z,993.5
2018-12-26T08:10:43.046Z,993.5
2018-12-26T08:11:44.360Z,993.4
2018-12-26T08:12:45.668Z,993.4
2018-12-26T08:13:46.991Z,993.4
2018-12-26T08:14:48.292Z,993.4
2018-12-26T08:15:49.624Z,993.4
2018-12-26T08:16:50.937Z,993.5
2018-12-26T08:17:52.198Z,993.5
2018-12-26T08:18:53.468Z,993.4
2018-12-26T08:19:54.761Z,993.4
2018-12-26T08:20:56.285Z,993.4
2018-12-26T08:21:57.579Z,993.4
2018-12-26T08:22:58.844Z,993.4
2018-12-26T08:24:00.222Z,993.4
2018-12-26T08:25:01.544Z,993.4
2018-12-26T08:26:02.867Z,993.4
2018-12-26T08:27:07.158Z,993.5
2018-12-26T08:28:08.713Z,993.4
2018-12-26T08:29:10.034Z,993.4
2018-12-26T08:30:11.300Z,993.3
2018-12-26T08:31:12.633Z,993.3
2018-12-26T08:32:13.951Z,993.5
2018-12-26T08:33:15.237Z,993.5
2018-12-26T08:34:16.520Z,993.5
2018-12-26T08:35:17.808Z,993.3
2018-12-26T08:36:21.281Z,993.5
2018-12-26T08:37:22.575Z,993.5
2018-12-26T08:38:23.858Z,993.5
2018-12-26T08:39:27.927Z,993.5
2018-12-26T08:40:29.223Z,993.5
2018-12-26T08:41:30.590Z,993.4
2018-12-26T08:42:31.878Z,993.5
2018-12-26T08:43:33.156Z,993.5
2018-12-26T08:44:34.441Z,993.4
2018-12-26T08:45:35.705Z,993.4
2018-12-26T08:46:37.288Z,993.4
2018-12-26T08:47:38.924Z,993.4
2018-12-26T08:48:42.996Z,993.4
2018-12-26T08:49:44.303Z,993.3
2018-12-26T08:50:45.582Z,993.4
2018-12-26T08:51:46.909Z,993.4
2018-12-26T08:52:50.220Z,993.4
2018-12-26T08:53:51.666Z,993.4
2018-12-26T08:54:52.944Z,993.3
2018-12-26T08:55:54.233Z,993.4
2018-12-26T08:56:55.572Z,993.4
2018-12-26T08:57:56.837Z,993.5
2018-12-26T08:58:58.144Z,993.5
2018-12-26T08:59:59.426Z,993.4
2018-12-26T09:01:00.753Z,993.4
2018-12-26T09:02:02.109Z,993.4
2018-12-26T09:03:03.408Z,993.4
2018-12-26T09:04:07.221Z,993.4
2018-12-26T09:05:08.512Z,993.3
2018-12-26T09:06:09.905Z,993.4
2018-12-26T09:07:11.242Z,993.4
2018-12-26T09:08:12.515Z,993.4
2018-12-26T09:09:13.859Z,993.4
2018-12-26T09:10:15.158Z,993.4
2018-12-26T09:11:16.618Z,993.5
2018-12-26T09:12:18.326Z,993.5
2018-12-26T09:13:19.591Z,993.4
2018-12-26T09:14:20.876Z,993.4
2018-12-26T09:15:22.177Z,993.5
2018-12-26T09:16:23.476Z,993.5
2018-12-26T09:17:24.822Z,993.5
2018-12-26T09:18:26.099Z,993.5
2018-12-26T09:19:27.389Z,993.5
2018-12-26T09:20:28.654Z,993.5
2018-12-26T09:21:30.784Z,993.5
2018-12-26T09:22:32.124Z,993.5
2018-12-26T09:23:33.405Z,993.5
2018-12-26T09:24:36.844Z,993.5
2018-12-26T09:25:38.117Z,993.5
2018-12-26T09:26:39.384Z,993.6
2018-12-26T09:27:40.694Z,993.5
2018-12-26T09:28:44.785Z,993.5
2018-12-26T09:29:46.057Z,993.4
2018-12-26T09:30:50.214Z,993.4
2018-12-26T09:31:52.081Z,993.5
2018-12-26T09:32:53.404Z,993.5
2018-12-26T09:33:54.695Z,993.5
2018-12-26T09:34:57.495Z,993.4
2018-12-26T09:35:58.784Z,993.5
2018-12-26T09:37:00.088Z,993.4
2018-12-26T09:38:01.467Z,993.4
2018-12-26T09:39:02.717Z,993.5
2018-12-26T09:40:04.491Z,993.5
2018-12-26T09:41:05.805Z,993.5
2018-12-26T09:42:07.089Z,993.5
2018-12-26T09:43:08.448Z,993.4
2018-12-26T09:44:09.743Z,993.5
2018-12-26T09:45:11.025Z,993.5
2018-12-26T09:46:12.314Z,993.5
2018-12-26T09:47:13.603Z,993.4
2018-12-26T09:48:14.925Z,993.4
2018-12-26T09:49:16.237Z,993.4
2018-12-26T09:50:17.504Z,993.4
2018-12-26T09:51:18.817Z,993.4
2018-12-26T09:52:27.236Z,993.4
2018-12-26T09:53:28.890Z,993.3
2018-12-26T09:54:30.177Z,993.3
2018-12-26T09:55:31.477Z,993.3
2018-12-26T09:56:32.809Z,993.3
2018-12-26T09:57:39.246Z,993.3
2018-12-26T09:58:41.671Z,993.2
2018-12-26T09:59:43.275Z,993.2
2018-12-26T10:00:44.562Z,993.2
2018-12-26T10:01:45.842Z,993.2
2018-12-26T10:02:47.145Z,993.1
2018-12-26T10:03:48.469Z,993
2018-12-26T10:04:49.788Z,993.1
2018-12-26T10:05:51.084Z,993.1
2018-12-26T10:06:52.407Z,993.1
2018-12-26T10:07:53.683Z,993.1
2018-12-26T10:08:55.059Z,993.1
2018-12-26T10:09:56.408Z,993.1
2018-12-26T10:10:57.686Z,993.1
2018-12-26T10:11:58.997Z,993.1
2018-12-26T10:13:00.294Z,993.1
2018-12-26T10:14:01.616Z,993
2018-12-26T10:15:02.903Z,993
2018-12-26T10:16:04.211Z,993.1
2018-12-26T10:17:05.526Z,993.1
2018-12-26T10:18:06.776Z,993.2
2018-12-26T10:19:08.513Z,993.2
2018-12-26T10:20:12.234Z,993.2
2018-12-26T10:21:13.514Z,993.2
2018-12-26T10:22:15.091Z,993.3
2018-12-26T10:23:16.376Z,993.2
2018-12-26T10:24:20.135Z,993.3
2018-12-26T10:25:21.410Z,993.3
2018-12-26T10:26:24.125Z,993.3
2018-12-26T10:27:25.429Z,993.3
2018-12-26T10:28:26.720Z,993.3
2018-12-26T10:29:30.866Z,993.3
2018-12-26T10:30:32.148Z,993.3
2018-12-26T10:31:33.408Z,993.3
2018-12-26T10:32:34.704Z,993.3
2018-12-26T10:33:35.989Z,993.3
2018-12-26T10:34:37.336Z,993.3
2018-12-26T10:35:38.745Z,993.3
2018-12-26T10:36:40.043Z,993.2
2018-12-26T10:37:41.837Z,993.3
2018-12-26T10:38:46.122Z,993.2
2018-12-26T10:39:50.116Z,993.3
2018-12-26T10:40:51.388Z,993.2
2018-12-26T10:41:52.686Z,993.3
2018-12-26T10:42:54.086Z,992.9
2018-12-26T10:43:55.725Z,993.1
2018-12-26T10:44:57.719Z,993.1
2018-12-26T10:45:59.047Z,993.1
2018-12-26T10:47:00.397Z,993.1
2018-12-26T10:48:01.708Z,993.2
2018-12-26T10:49:03.032Z,993.1
2018-12-26T10:50:04.601Z,993.2
2018-12-26T10:51:05.927Z,993.1
2018-12-26T10:52:07.251Z,993.1
2018-12-26T10:53:08.549Z,993.1
2018-12-26T10:54:12.050Z,993
2018-12-26T10:55:13.416Z,993.1
2018-12-26T10:56:14.765Z,993
2018-12-26T10:57:16.060Z,993.1
2018-12-26T10:58:17.419Z,993.1
2018-12-26T10:59:19.181Z,993.1
2018-12-26T11:00:20.518Z,993.1
2018-12-26T11:01:21.802Z,993
2018-12-26T11:02:23.297Z,993
2018-12-26T11:03:24.618Z,993
2018-12-26T11:04:27.106Z,992.9
2018-12-26T11:05:36.285Z,993
2018-12-26T11:06:38.905Z,993
2018-12-26T11:07:50.324Z,993.1
2018-12-26T11:08:51.902Z,993.1
2018-12-26T11:09:53.189Z,993.1
2018-12-26T11:10:54.509Z,993.2
2018-12-26T11:11:56.069Z,993.1
2018-12-26T11:12:57.384Z,993
2018-12-26T11:13:58.684Z,993.1
2018-12-26T11:15:01.570Z,992.9
2018-12-26T11:16:02.932Z,993.1
2018-12-26T11:17:04.214Z,993
2018-12-26T11:18:05.507Z,993
2018-12-26T11:19:06.813Z,993
2018-12-26T11:20:08.289Z,993.1
2018-12-26T11:21:09.662Z,993
2018-12-26T11:22:10.942Z,993
2018-12-26T11:23:12.281Z,993
2018-12-26T11:24:13.608Z,993
2018-12-26T11:25:15.137Z,993
2018-12-26T11:26:16.490Z,993.1
2018-12-26T11:27:17.766Z,993
2018-12-26T11:28:19.048Z,993
2018-12-26T11:29:20.398Z,993
2018-12-26T11:30:21.741Z,993
2018-12-26T11:31:26.006Z,993
2018-12-26T11:32:27.302Z,992.9
2018-12-26T11:33:28.638Z,993
2018-12-26T11:34:31.201Z,993
2018-12-26T11:35:32.508Z,993
2018-12-26T11:36:33.857Z,993
2018-12-26T11:37:35.163Z,993
2018-12-26T11:38:36.442Z,993
2018-12-26T11:39:37.846Z,992.9
2018-12-26T11:40:39.109Z,993
2018-12-26T11:41:40.465Z,993
2018-12-26T11:42:41.813Z,993
2018-12-26T11:43:43.088Z,993
2018-12-26T11:44:46.997Z,993
2018-12-26T11:45:48.284Z,993
2018-12-26T11:46:49.903Z,993
2018-12-26T11:47:51.306Z,993
2018-12-26T11:48:52.614Z,993
2018-12-26T11:49:55.089Z,993
2018-12-26T11:50:56.520Z,993
2018-12-26T11:51:57.858Z,992.9
2018-12-26T11:53:04.319Z,992.9
2018-12-26T11:54:06.825Z,993
2018-12-26T11:55:08.313Z,992.9
2018-12-26T11:56:09.631Z,993
2018-12-26T11:57:12.296Z,993
2018-12-26T11:58:13.614Z,993
2018-12-26T11:59:16.312Z,993
2018-12-26T12:00:18.983Z,992.9
2018-12-26T12:01:20.302Z,992.9
2018-12-26T12:02:21.635Z,992.9
2018-12-26T12:03:24.915Z,992.9
2018-12-26T12:04:26.234Z,992.9
2018-12-26T12:05:27.507Z,992.9
2018-12-26T12:06:28.932Z,993
2018-12-26T12:07:30.265Z,992.9
2018-12-26T12:08:32.332Z,992.9
2018-12-26T12:09:33.669Z,993
2018-12-26T12:10:34.997Z,992.9
2018-12-26T12:11:38.564Z,992.9
2018-12-26T12:12:44.189Z,992.9
2018-12-26T12:13:46.009Z,992.9
2018-12-26T12:14:56.281Z,992.9
2018-12-26T12:15:57.598Z,992.9
2018-12-26T12:17:00.289Z,993
2018-12-26T12:18:01.677Z,993
2018-12-26T12:19:03.542Z,993
2018-12-26T12:20:07.293Z,992.9
2018-12-26T12:21:08.799Z,992.9
2018-12-26T12:22:13.389Z,992.9
2018-12-26T12:23:14.920Z,992.9
2018-12-26T12:24:16.306Z,992.9
2018-12-26T12:25:17.580Z,992.9
2018-12-26T12:26:20.820Z,992.8
2018-12-26T12:27:22.149Z,992.9
2018-12-26T12:28:23.550Z,992.8
2018-12-26T12:29:24.837Z,992.8
2018-12-26T12:30:26.373Z,992.9
2018-12-26T12:31:32.099Z,992.8
2018-12-26T12:32:36.059Z,992.8
2018-12-26T12:33:42.009Z,992.8
2018-12-26T12:34:44.486Z,992.8
2018-12-26T12:35:45.789Z,992.8
2018-12-26T12:36:47.113Z,992.8
2018-12-26T12:37:51.657Z,992.8
2018-12-26T12:38:52.981Z,992.8
2018-12-26T12:39:56.590Z,992.8
2018-12-26T12:40:57.920Z,992.7
2018-12-26T12:41:59.317Z,992.8
2018-12-26T12:43:00.612Z,992.7
2018-12-26T12:44:02.235Z,992.8
2018-12-26T12:45:03.515Z,992.8
2018-12-26T12:46:04.784Z,992.7
2018-12-26T12:47:06.518Z,992.8
2018-12-26T12:48:07.812Z,992.8
2018-12-26T12:49:11.576Z,992.8
2018-12-26T12:50:14.090Z,992.8
2018-12-26T12:51:15.388Z,992.8
2018-12-26T12:52:17.018Z,992.8
2018-12-26T12:53:18.313Z,992.8
2018-12-26T12:54:19.885Z,992.8
2018-12-26T12:55:21.223Z,992.7
2018-12-26T12:56:22.494Z,992.8
2018-12-26T12:57:23.767Z,992.8
2018-12-26T12:58:27.117Z,992.8
2018-12-26T12:59:28.470Z,992.8
2018-12-26T13:00:29.762Z,992.9
2018-12-26T13:01:31.381Z,992.9
2018-12-26T13:02:32.666Z,992.9
2018-12-26T13:03:34.346Z,992.9
2018-12-26T13:04:35.673Z,992.9
2018-12-26T13:05:38.638Z,992.9
2018-12-26T13:06:41.146Z,992.9
2018-12-26T13:07:45.290Z,992.9
2018-12-26T13:08:46.585Z,993
2018-12-26T13:09:47.984Z,992.8
2018-12-26T13:10:49.618Z,992.9
2018-12-26T13:11:51.072Z,992.9
2018-12-26T13:12:52.694Z,992.9
2018-12-26T13:13:54.754Z,992.9
2018-12-26T13:14:56.100Z,992.8
2018-12-26T13:15:57.590Z,992.8
2018-12-26T13:17:00.311Z,992.9
2018-12-26T13:18:03.288Z,992.9
2018-12-26T13:19:04.597Z,992.9
2018-12-26T13:20:05.915Z,992.8
2018-12-26T13:21:09.514Z,992.8
2018-12-26T13:22:13.274Z,992.8
2018-12-26T13:23:15.596Z,992.8
2018-12-26T13:24:16.994Z,992.8
2018-12-26T13:25:18.323Z,992.8